createdAt,value
2023-01-09T00:00:51.851Z,15.73
2023-01-09T00:03:18.740Z,5.90
2023-01-09T00:05:45.514Z,5.50
2023-01-09T00:08:12.499Z,6.07
2023-01-09T00:10:39.577Z,6.03
2023-01-09T00:13:06.691Z,6.32
2023-01-09T00:15:34.080Z,5.70
2023-01-09T00:18:01.084Z,6.13
2023-01-09T00:20:27.990Z,14.85
2023-01-09T00:22:54.907Z,10.55
2023-01-09T00:25:22.926Z,6.20
2023-01-09T00:27:49.873Z,5.95
2023-01-09T00:30:16.793Z,5.50
2023-01-09T00:32:43.644Z,5.90
2023-01-09T00:35:15.785Z,5.88
2023-01-09T00:37:42.768Z,17.55
2023-01-09T00:40:10.624Z,6.85
2023-01-09T00:42:37.940Z,17.13
2023-01-09T00:45:09.828Z,5.80
2023-01-09T00:47:40.583Z,8.88
2023-01-09T00:50:13.897Z,6.85
2023-01-09T00:52:41.262Z,6.72
2023-01-09T00:55:09.466Z,6.38
2023-01-09T00:57:36.453Z,8.82
2023-01-09T01:00:03.945Z,6.03
2023-01-09T01:02:30.900Z,13.93
2023-01-09T01:05:16.372Z,12.38
2023-01-09T01:07:45.076Z,8.55
2023-01-09T01:10:17.735Z,6.05
2023-01-09T01:12:44.846Z,5.97
2023-01-09T01:15:12.854Z,6.40
2023-01-09T01:17:41.163Z,7.60
2023-01-09T01:20:14.114Z,5.82
2023-01-09T01:22:42.652Z,6.03
2023-01-09T01:25:11.531Z,5.88
2023-01-09T01:27:38.718Z,7.35
2023-01-09T01:30:07.946Z,6.20
2023-01-09T01:32:34.900Z,5.47
2023-01-09T01:35:01.779Z,5.70
2023-01-09T01:37:28.624Z,6.53
2023-01-09T01:39:55.812Z,8.38
2023-01-09T01:42:23.319Z,6.45
2023-01-09T01:45:11.181Z,6.40
2023-01-09T01:48:03.396Z,6.53
2023-01-09T01:50:41.323Z,5.60
2023-01-09T01:53:20.746Z,6.03
2023-01-09T01:55:53.934Z,6.38
2023-01-09T01:58:21.034Z,6.25
2023-01-09T02:00:48.069Z,6.82
2023-01-09T02:03:23.512Z,6.75
2023-01-09T02:05:50.417Z,6.72
2023-01-09T02:08:18.173Z,7.55
2023-01-09T02:10:45.711Z,7.32
2023-01-09T02:13:49.752Z,8.45
2023-01-09T02:16:48.097Z,6.10
2023-01-09T02:19:23.808Z,6.90
2023-01-09T02:22:16.785Z,6.50
2023-01-09T02:25:00.917Z,6.28
2023-01-09T02:28:05.593Z,6.80
2023-01-09T02:30:38.507Z,6.63
2023-01-09T02:33:14.256Z,6.32
2023-01-09T02:36:05.277Z,7.25
2023-01-09T02:39:02.908Z,6.63
2023-01-09T02:41:48.757Z,6.57
2023-01-09T02:44:25.467Z,7.45
2023-01-09T02:47:29.442Z,8.00
2023-01-09T02:50:00.322Z,7.75
2023-01-09T02:52:54.135Z,8.13
2023-01-09T02:55:24.612Z,8.82
2023-01-09T02:58:04.935Z,9.52
2023-01-09T03:00:34.775Z,8.40
2023-01-09T03:03:10.355Z,8.30
2023-01-09T03:05:52.650Z,9.00
2023-01-09T03:08:27.784Z,9.50
2023-01-09T03:11:01.765Z,8.23
2023-01-09T03:13:34.091Z,8.50
2023-01-09T03:16:05.568Z,7.85
2023-01-09T03:18:36.449Z,7.20
2023-01-09T03:21:06.473Z,7.60
2023-01-09T03:26:13.161Z,7.80
2023-01-09T03:28:40.054Z,8.45
2023-01-09T03:31:06.950Z,8.02
2023-01-09T03:33:33.912Z,7.28
2023-01-09T03:36:01.019Z,8.15
2023-01-09T03:38:27.909Z,7.63
2023-01-09T03:40:54.843Z,7.25
2023-01-09T03:43:21.918Z,8.02
2023-01-09T03:45:48.984Z,8.85
2023-01-09T03:48:16.010Z,7.70
2023-01-09T03:50:45.984Z,8.32
2023-01-09T03:53:13.985Z,8.98
2023-01-09T03:55:44.170Z,8.13
2023-01-09T03:58:11.089Z,8.73
2023-01-09T04:00:39.334Z,8.88
2023-01-09T04:03:07.983Z,9.20
2023-01-09T04:05:35.062Z,9.98
2023-01-09T04:08:02.135Z,9.13
2023-01-09T04:10:29.005Z,8.73
2023-01-09T04:12:55.916Z,9.32
2023-01-09T04:15:23.261Z,9.10
2023-01-09T04:17:50.438Z,9.05
2023-01-09T04:20:17.588Z,8.60
2023-01-09T04:22:45.040Z,9.02
2023-01-09T04:25:12.199Z,8.52
2023-01-09T04:27:39.213Z,9.80
2023-01-09T04:30:06.812Z,9.10
2023-01-09T04:32:33.656Z,8.07
2023-01-09T04:35:00.522Z,8.85
2023-01-09T04:37:27.456Z,8.80
2023-01-09T04:39:56.251Z,8.85
2023-01-09T04:42:24.544Z,10.02
2023-01-09T04:44:54.309Z,9.63
2023-01-09T04:47:22.050Z,8.45
2023-01-09T04:49:48.829Z,8.73
2023-01-09T04:52:15.700Z,8.40
2023-01-09T04:54:42.577Z,8.32
2023-01-09T04:57:09.597Z,8.38
2023-01-09T04:59:39.291Z,8.88
2023-01-09T05:02:06.430Z,8.25
2023-01-09T05:04:33.469Z,8.15
2023-01-09T05:07:00.301Z,8.18
2023-01-09T05:09:27.157Z,8.27
2023-01-09T05:11:55.201Z,8.10
2023-01-09T05:14:22.093Z,8.35
2023-01-09T05:16:49.003Z,8.40
2023-01-09T05:19:16.147Z,8.35
2023-01-09T05:21:43.449Z,10.13
2023-01-09T05:24:10.303Z,8.75
2023-01-09T05:26:37.195Z,8.80
2023-01-09T05:29:03.974Z,9.02
2023-01-09T05:31:30.923Z,9.18
2023-01-09T05:33:59.395Z,9.20
2023-01-09T05:36:26.635Z,8.98
2023-01-09T05:38:53.518Z,10.60
2023-01-09T05:41:20.959Z,10.07
2023-01-09T05:43:48.532Z,9.88
2023-01-09T05:46:15.945Z,11.68
2023-01-09T05:48:42.851Z,12.38
2023-01-09T05:51:09.657Z,11.60
2023-01-09T05:53:36.571Z,13.18
2023-01-09T05:56:03.482Z,11.60
2023-01-09T05:58:30.269Z,11.27
2023-01-09T06:00:58.744Z,10.15
2023-01-09T06:03:25.522Z,11.35
2023-01-09T06:05:52.517Z,11.43
2023-01-09T06:08:19.377Z,11.80
2023-01-09T06:10:47.097Z,11.73
2023-01-09T06:13:14.315Z,11.10
2023-01-09T06:15:41.495Z,11.90
2023-01-09T06:18:08.363Z,12.30
2023-01-09T06:20:35.241Z,11.10
2023-01-09T06:23:02.075Z,11.80
2023-01-09T06:25:28.949Z,12.40
2023-01-09T06:27:55.756Z,12.25
2023-01-09T06:30:22.772Z,12.45
2023-01-09T06:32:50.010Z,11.43
2023-01-09T06:35:20.662Z,12.57
2023-01-09T06:37:49.979Z,12.63
2023-01-09T06:40:18.003Z,11.80
2023-01-09T06:42:45.731Z,11.25
2023-01-09T06:45:13.943Z,12.70
2023-01-09T06:47:41.251Z,13.13
2023-01-09T06:50:11.867Z,15.23
2023-01-09T06:52:39.644Z,12.15
2023-01-09T06:55:07.833Z,12.57
2023-01-09T06:57:35.143Z,12.25
2023-01-09T07:00:02.165Z,13.18
2023-01-09T07:02:29.388Z,13.00
2023-01-09T07:04:56.203Z,13.80
2023-01-09T07:07:23.056Z,14.45
2023-01-09T07:09:50.085Z,13.02
2023-01-09T07:12:17.100Z,12.68
2023-01-09T07:14:44.038Z,12.73
2023-01-09T07:17:13.857Z,12.65
2023-01-09T07:19:41.167Z,13.95
2023-01-09T07:22:08.592Z,13.18
2023-01-09T07:24:35.950Z,13.13
2023-01-09T07:27:03.202Z,11.32
2023-01-09T07:29:30.620Z,12.90
2023-01-09T07:31:57.719Z,12.23
2023-01-09T07:34:24.660Z,13.55
2023-01-09T07:36:51.947Z,12.48
2023-01-09T07:39:19.055Z,13.23
2023-01-09T07:41:46.243Z,13.20
2023-01-09T07:44:14.869Z,13.15
2023-01-09T07:46:42.015Z,12.93
2023-01-09T07:49:08.996Z,12.00
2023-01-09T07:51:35.935Z,12.80
2023-01-09T07:54:02.791Z,11.63
2023-01-09T07:56:29.660Z,11.65
2023-01-09T07:58:56.526Z,12.70
2023-01-09T08:01:26.551Z,11.52
2023-01-09T08:06:20.406Z,11.25
2023-01-09T08:08:47.317Z,12.05
2023-01-09T08:11:14.186Z,12.02
2023-01-09T08:13:41.176Z,11.48
2023-01-09T08:16:08.235Z,12.77
2023-01-09T08:18:35.051Z,11.32
2023-01-09T08:21:01.906Z,14.23
2023-01-09T08:23:28.782Z,15.52
2023-01-09T08:25:55.610Z,16.25
2023-01-09T08:28:22.558Z,16.90
2023-01-09T08:30:49.353Z,18.40
2023-01-09T08:33:16.275Z,18.40
2023-01-09T08:35:44.518Z,17.95
2023-01-09T08:38:11.587Z,18.20
2023-01-09T08:40:38.785Z,17.42
2023-01-09T08:43:24.271Z,16.75
2023-01-09T08:46:20.786Z,16.45
2023-01-09T08:48:50.742Z,17.30
2023-01-09T08:51:17.576Z,18.45
2023-01-09T08:53:44.399Z,17.65
2023-01-09T08:56:11.299Z,17.77
2023-01-09T08:58:38.239Z,17.23
2023-01-09T09:01:06.858Z,18.73
2023-01-09T09:03:33.857Z,17.80
2023-01-09T09:06:00.698Z,15.48
2023-01-09T09:08:27.599Z,16.90
2023-01-09T09:10:54.558Z,16.13
2023-01-09T09:13:21.422Z,15.57
2023-01-09T09:15:48.396Z,15.98
2023-01-09T09:18:15.880Z,14.15
2023-01-09T09:20:43.291Z,15.85
2023-01-09T09:23:10.197Z,15.82
2023-01-09T09:25:38.655Z,14.30
2023-01-09T09:28:06.449Z,19.60
2023-01-09T09:30:38.548Z,64.20
2023-01-09T09:33:06.010Z,14.63
2023-01-09T09:35:34.264Z,15.10
2023-01-09T09:38:05.212Z,14.15
2023-01-09T09:40:55.697Z,15.02
2023-01-09T09:46:37.079Z,14.30
2023-01-09T09:49:31.355Z,14.60
2023-01-09T09:52:09.880Z,14.73
2023-01-09T09:54:46.811Z,15.50
2023-01-09T09:57:23.254Z,14.45
2023-01-09T09:59:52.737Z,14.63
2023-01-09T10:02:33.338Z,12.77
2023-01-09T10:05:15.387Z,15.90
2023-01-09T10:07:48.189Z,15.02
2023-01-09T10:10:25.185Z,14.00
2023-01-09T10:12:58.708Z,13.35
2023-01-09T10:15:46.539Z,13.35
2023-01-09T10:18:40.356Z,13.30
2023-01-09T10:21:18.660Z,12.43
2023-01-09T10:24:07.498Z,13.60
2023-01-09T10:26:48.739Z,14.40
2023-01-09T10:29:23.055Z,15.75
2023-01-09T10:32:16.118Z,15.52
2023-01-09T10:34:50.420Z,15.38
2023-01-09T10:37:19.908Z,15.82
2023-01-09T10:40:18.269Z,15.50
2023-01-09T10:42:49.761Z,15.48
2023-01-09T10:45:24.227Z,16.92
2023-01-09T10:47:53.899Z,14.38
2023-01-09T10:50:22.922Z,14.05
2023-01-09T10:52:55.703Z,14.33
2023-01-09T10:55:41.142Z,13.82
2023-01-09T10:58:17.186Z,12.60
2023-01-09T11:00:45.224Z,10.80
2023-01-09T11:03:20.617Z,11.48
2023-01-09T11:05:57.965Z,11.98
2023-01-09T11:08:31.973Z,11.35
2023-01-09T11:11:01.131Z,11.30
2023-01-09T11:13:33.566Z,10.03
2023-01-09T11:16:07.782Z,10.80
2023-01-09T11:18:38.940Z,10.15
2023-01-09T11:21:36.282Z,11.60
2023-01-09T11:24:28.947Z,11.65
2023-01-09T11:27:28.172Z,10.77
2023-01-09T11:30:17.937Z,11.20
2023-01-09T11:32:45.857Z,10.88
2023-01-09T11:35:34.820Z,10.55
2023-01-09T11:38:13.068Z,10.80
2023-01-09T11:41:01.910Z,10.68
2023-01-09T11:43:39.922Z,10.27
2023-01-09T11:46:29.593Z,10.65
2023-01-09T11:48:59.104Z,10.98
2023-01-09T11:51:33.693Z,10.43
2023-01-09T11:54:26.230Z,11.80
2023-01-09T11:56:53.438Z,12.20
2023-01-09T11:59:25.442Z,12.68
2023-01-09T12:02:13.452Z,13.75
2023-01-09T12:04:54.364Z,14.60
2023-01-09T12:07:21.222Z,14.40
2023-01-09T12:10:12.359Z,14.50
2023-01-09T12:13:13.548Z,15.30
2023-01-09T12:16:01.832Z,14.82
2023-01-09T12:18:44.337Z,15.20
2023-01-09T12:21:26.325Z,14.98
2023-01-09T12:24:18.520Z,15.82
2023-01-09T12:26:45.335Z,16.38
2023-01-09T12:29:39.640Z,15.82
2023-01-09T12:32:31.015Z,16.10
2023-01-09T12:35:19.746Z,14.35
2023-01-09T12:37:54.511Z,15.98
2023-01-09T12:40:42.653Z,13.43
2023-01-09T12:43:24.450Z,14.60
2023-01-09T12:46:32.909Z,14.93
2023-01-09T12:49:42.306Z,14.30
2023-01-09T12:52:47.307Z,15.00
2023-01-09T12:55:24.622Z,13.23
2023-01-09T12:57:56.369Z,12.60
2023-01-09T13:00:49.727Z,11.65
2023-01-09T13:03:29.060Z,11.25
2023-01-09T13:05:57.641Z,12.60
2023-01-09T13:09:04.212Z,11.75
2023-01-09T13:11:57.634Z,11.32
2023-01-09T13:14:47.235Z,10.52
2023-01-09T13:17:24.035Z,12.25
2023-01-09T13:19:50.981Z,15.35
2023-01-09T13:22:18.329Z,13.57
2023-01-09T13:25:06.637Z,11.27
2023-01-09T13:27:39.557Z,12.60
2023-01-09T13:30:12.610Z,12.80
2023-01-09T13:32:50.039Z,14.30
2023-01-09T13:35:16.992Z,12.35
2023-01-09T13:37:51.924Z,13.05
2023-01-09T13:40:18.809Z,14.10
2023-01-09T13:43:02.711Z,17.67
2023-01-09T13:45:32.818Z,15.45
2023-01-09T13:50:37.000Z,15.18
2023-01-09T13:53:28.137Z,15.73
2023-01-09T13:55:58.653Z,15.73
2023-01-09T13:58:31.941Z,15.50
2023-01-09T14:01:00.348Z,15.60
2023-01-09T14:03:27.255Z,16.40
2023-01-09T14:05:54.128Z,17.52
2023-01-09T14:08:24.237Z,18.38
2023-01-09T14:11:01.081Z,18.52
2023-01-09T14:13:39.066Z,20.60
2023-01-09T14:16:14.550Z,21.17
2023-01-09T14:19:08.116Z,21.08
2023-01-09T14:21:54.483Z,22.15
2023-01-09T14:24:43.955Z,22.17
2023-01-09T14:27:48.524Z,22.38
2023-01-09T14:30:27.785Z,20.92
2023-01-09T14:33:19.162Z,21.00
2023-01-09T14:35:52.873Z,23.65
2023-01-09T14:38:25.778Z,23.42
2023-01-09T14:40:59.813Z,26.42
2023-01-09T14:43:37.541Z,27.98
2023-01-09T14:46:11.566Z,28.52
2023-01-09T14:48:51.478Z,32.28
2023-01-09T14:51:20.671Z,36.42
2023-01-09T14:53:51.789Z,37.10
2023-01-09T14:56:31.421Z,35.75
2023-01-09T14:59:12.038Z,31.80
2023-01-09T15:01:42.326Z,32.85
2023-01-09T15:04:23.745Z,31.48
2023-01-09T15:06:50.948Z,33.22
2023-01-09T15:09:34.598Z,30.77
2023-01-09T15:12:08.281Z,30.08
2023-01-09T15:14:41.490Z,32.95
2023-01-09T15:17:26.479Z,37.53
2023-01-09T15:19:54.276Z,34.92
2023-01-09T15:22:34.946Z,35.38
2023-01-09T15:25:22.773Z,33.33
2023-01-09T15:28:00.376Z,32.08
2023-01-09T15:30:34.350Z,29.70
2023-01-09T15:33:04.873Z,23.17
2023-01-09T15:35:34.999Z,16.23
2023-01-09T15:40:34.347Z,11.32
2023-01-09T15:43:02.060Z,10.85
2023-01-09T15:45:36.007Z,7.22
2023-01-09T15:48:18.170Z,9.90
2023-01-09T15:50:47.440Z,8.15
2023-01-09T15:53:17.229Z,6.43
2023-01-09T15:55:44.205Z,6.40
2023-01-09T15:58:29.615Z,5.90
2023-01-09T16:01:03.162Z,5.63
2023-01-09T16:03:30.385Z,5.53
2023-01-09T16:06:05.782Z,5.70
2023-01-09T16:08:42.747Z,4.93
2023-01-09T16:11:22.790Z,5.07
2023-01-09T16:13:50.700Z,4.60
2023-01-09T16:16:33.905Z,4.57
2023-01-09T16:19:01.061Z,4.68
2023-01-09T16:21:37.740Z,4.68
2023-01-09T16:24:25.271Z,4.35
2023-01-09T16:27:10.752Z,4.22
2023-01-09T16:29:39.540Z,3.92
2023-01-09T16:32:07.132Z,4.03
2023-01-09T16:34:35.767Z,3.85
2023-01-09T16:37:05.047Z,3.80
2023-01-09T16:39:40.403Z,3.13
2023-01-09T16:42:28.024Z,3.03
2023-01-09T16:44:54.852Z,3.42
2023-01-09T16:47:21.708Z,3.58
2023-01-09T16:49:50.647Z,2.95
2023-01-09T16:52:18.280Z,3.33
2023-01-09T16:54:47.521Z,3.42
2023-01-09T16:57:22.412Z,3.03
2023-01-09T16:59:59.758Z,3.90
2023-01-09T17:02:34.042Z,3.78
2023-01-09T17:05:02.334Z,3.53
2023-01-09T17:07:34.445Z,4.15
2023-01-09T17:10:02.310Z,3.50
2023-01-09T17:12:29.097Z,3.60
2023-01-09T17:14:55.956Z,3.50
2023-01-09T17:17:22.787Z,3.25
2023-01-09T17:19:49.678Z,3.13
2023-01-09T17:22:16.862Z,2.92
2023-01-09T17:25:02.427Z,3.53
2023-01-09T17:27:55.378Z,4.05
2023-01-09T17:30:23.119Z,3.88
2023-01-09T17:32:50.938Z,3.78
2023-01-09T17:35:17.940Z,3.50
2023-01-09T17:37:45.036Z,4.00
2023-01-09T17:40:26.440Z,3.63
2023-01-09T17:42:53.611Z,2.88
2023-01-09T17:45:20.697Z,3.60
2023-01-09T17:47:50.855Z,3.65
2023-01-09T17:52:49.950Z,3.53
2023-01-09T17:55:20.388Z,3.70
2023-01-09T17:57:47.333Z,4.13
2023-01-09T18:00:36.930Z,3.72
2023-01-09T18:03:05.202Z,4.18
2023-01-09T18:05:32.193Z,3.35
2023-01-09T18:07:59.354Z,3.42
2023-01-09T18:10:29.633Z,3.10
2023-01-09T18:12:57.049Z,3.42
2023-01-09T18:15:24.668Z,3.63
2023-01-09T18:17:52.592Z,4.20
2023-01-09T18:20:19.625Z,3.60
2023-01-09T18:22:47.776Z,3.65
2023-01-09T18:25:14.648Z,3.95
2023-01-09T18:27:42.009Z,5.78
2023-01-09T18:30:09.776Z,4.18
2023-01-09T18:35:06.057Z,3.60
2023-01-09T18:37:32.969Z,3.83
2023-01-09T18:40:00.249Z,7.13
2023-01-09T18:42:27.180Z,4.70
2023-01-09T18:44:54.978Z,3.78
2023-01-09T18:47:25.474Z,3.67
2023-01-09T18:49:52.869Z,4.10
2023-01-09T18:52:25.756Z,3.53
2023-01-09T18:54:58.453Z,3.55
2023-01-09T18:57:25.983Z,3.03
2023-01-09T18:59:57.156Z,3.97
2023-01-09T19:02:31.519Z,3.90
2023-01-09T19:04:59.729Z,4.25
2023-01-09T19:07:27.162Z,3.72
2023-01-09T19:09:54.215Z,3.45
2023-01-09T19:12:21.031Z,4.22
2023-01-09T19:14:48.063Z,3.88
2023-01-09T19:17:15.616Z,4.82
2023-01-09T19:19:42.599Z,4.38
2023-01-09T19:22:09.371Z,4.00
2023-01-09T19:24:37.829Z,3.83
2023-01-09T19:27:04.880Z,4.38
2023-01-09T19:29:31.874Z,4.20
2023-01-09T19:31:59.734Z,4.32
2023-01-09T19:34:26.630Z,5.80
2023-01-09T19:36:53.972Z,4.53
2023-01-09T19:39:21.460Z,7.05
2023-01-09T19:41:48.503Z,6.25
2023-01-09T19:44:15.323Z,5.20
2023-01-09T19:46:42.287Z,4.10
2023-01-09T19:49:09.536Z,8.05
2023-01-09T19:51:36.655Z,11.23
2023-01-09T19:56:34.135Z,5.43
2023-01-09T19:59:03.102Z,6.63
2023-01-09T20:01:32.502Z,6.07
2023-01-09T20:04:05.226Z,10.70
2023-01-09T20:06:32.288Z,6.13
2023-01-09T20:09:01.237Z,5.55
2023-01-09T20:11:31.493Z,6.38
2023-01-09T20:16:30.694Z,5.38
2023-01-09T20:18:59.873Z,7.25
2023-01-09T20:21:28.600Z,6.18
2023-01-09T20:23:58.994Z,6.72
2023-01-09T20:26:26.502Z,8.60
2023-01-09T20:28:54.161Z,7.93
2023-01-09T20:31:22.489Z,9.18
2023-01-09T20:33:51.183Z,6.95
2023-01-09T20:36:19.620Z,7.47
2023-01-09T20:38:46.458Z,7.95
2023-01-09T20:41:25.564Z,8.05
2023-01-09T20:43:55.843Z,6.90
2023-01-09T20:46:24.355Z,7.30
2023-01-09T20:48:51.504Z,6.30
2023-01-09T20:51:18.725Z,7.97
2023-01-09T20:53:47.643Z,5.80
2023-01-09T20:56:14.853Z,6.50
2023-01-09T20:58:42.567Z,6.22
2023-01-09T21:01:11.976Z,6.43
2023-01-09T21:03:39.906Z,7.03
2023-01-09T21:06:26.227Z,7.00
2023-01-09T21:08:53.301Z,6.82
2023-01-09T21:11:22.061Z,8.75
2023-01-09T21:13:49.505Z,7.05
2023-01-09T21:16:21.789Z,6.88
2023-01-09T21:18:48.819Z,7.07
2023-01-09T21:21:18.882Z,7.72
2023-01-09T21:23:47.811Z,6.90
2023-01-09T21:26:15.779Z,9.88
2023-01-09T21:28:49.896Z,12.23
2023-01-09T21:31:20.982Z,11.75
2023-01-09T21:33:48.481Z,11.43
2023-01-09T21:36:16.139Z,10.77
2023-01-09T21:38:43.407Z,10.85
2023-01-09T21:41:29.428Z,8.93
2023-01-09T21:44:14.971Z,8.40
2023-01-09T21:46:55.972Z,6.53
2023-01-09T21:49:25.783Z,7.97
2023-01-09T21:51:54.472Z,7.38
2023-01-09T21:54:23.462Z,7.30
2023-01-09T21:56:51.667Z,7.93
2023-01-09T21:59:19.059Z,7.78
2023-01-09T22:01:46.350Z,8.27
2023-01-09T22:04:15.084Z,8.40
2023-01-09T22:06:42.182Z,8.88
2023-01-09T22:09:10.203Z,13.30
2023-01-09T22:11:41.361Z,7.93
2023-01-09T22:14:12.161Z,8.48
2023-01-09T22:16:39.057Z,9.30
2023-01-09T22:19:05.979Z,9.23
2023-01-09T22:21:33.013Z,9.40
2023-01-09T22:24:01.744Z,11.32
2023-01-09T22:26:30.151Z,11.25
2023-01-09T22:28:57.377Z,11.32
2023-01-09T22:31:29.513Z,16.20
2023-01-09T22:33:58.528Z,10.90
2023-01-09T22:36:28.223Z,12.05
2023-01-09T22:38:56.735Z,11.95
2023-01-09T22:41:24.654Z,12.30
2023-01-09T22:43:51.660Z,13.52
2023-01-09T22:46:18.680Z,11.57
2023-01-09T22:48:45.739Z,11.68
2023-01-09T22:51:18.609Z,12.02
2023-01-09T22:53:45.755Z,11.05
2023-01-09T22:56:14.982Z,9.93
2023-01-09T22:58:42.247Z,9.30
2023-01-09T23:01:12.599Z,7.68
2023-01-09T23:03:40.684Z,7.97
2023-01-09T23:06:12.990Z,8.23
2023-01-09T23:08:40.098Z,8.65
2023-01-09T23:11:10.865Z,7.53
2023-01-09T23:13:38.378Z,8.68
2023-01-09T23:16:05.623Z,9.63
2023-01-09T23:18:32.461Z,6.43
2023-01-09T23:21:02.079Z,6.00
2023-01-09T23:23:30.289Z,7.55
2023-01-09T23:26:00.171Z,5.60
2023-01-09T23:28:28.095Z,6.10
2023-01-09T23:30:54.942Z,5.00
2023-01-09T23:33:21.987Z,4.28
2023-01-09T23:35:49.087Z,5.07
2023-01-09T23:38:16.229Z,5.05
2023-01-09T23:40:43.202Z,4.53
2023-01-09T23:43:12.315Z,5.00
2023-01-09T23:45:50.502Z,4.35
2023-01-09T23:48:18.690Z,4.40
2023-01-09T23:50:53.751Z,3.83
2023-01-09T23:53:22.710Z,3.85
2023-01-09T23:55:52.247Z,4.43
2023-01-09T23:58:19.098Z,6.20
